Time;durP1;ratioP1;P1;durP2;ratioP2;P2;SDS_P1;SDS_P2;PMS_P1;PMS_P2;Temp;Humidity;BMP_temperature;BMP_pressure;BME280_temperature;BME280_humidity;BME280_pressure;Samples;Min_cycle;Max_cycle;Signal;HPM_P1;HPM_P2
2021/07/20 00:02:33;;;;;;;18.40;16.70;;;18.80;99.90;;;19.77;74.50;98092.38;5199523;28;20206;-69
2021/07/20 00:05:10;;;;;;;17.42;15.60;;;18.80;99.90;;;19.68;74.33;98089.53;5205500;28;20704;-69
2021/07/20 00:07:44;;;;;;;18.67;16.75;;;18.70;99.90;;;19.66;75.19;98088.63;5204811;28;20264;-69
2021/07/20 00:10:23;;;;;;;18.17;16.38;;;18.60;99.90;;;19.61;74.98;98092.78;5187531;28;20289;-69
2021/07/20 00:12:57;;;;;;;18.65;15.88;;;18.60;99.90;;;19.50;76.11;98097.69;5186173;28;20202;-69
2021/07/20 00:15:31;;;;;;;17.42;15.73;;;18.50;99.90;;;19.45;75.80;98099.28;5200781;28;20194;-69
2021/07/20 00:18:09;;;;;;;17.02;15.27;;;18.40;99.90;;;19.48;75.25;98093.31;5184698;28;20237;-69
2021/07/20 00:20:45;;;;;;;17.48;15.68;;;18.40;99.90;;;19.39;76.01;98096.53;5184797;28;20359;-69
2021/07/20 00:23:20;;;;;;;17.38;15.73;;;18.30;99.90;;;19.43;76.91;98097.50;5194823;28;20197;-69
2021/07/20 00:25:53;;;;;;;18.27;16.40;;;18.40;99.90;;;19.33;77.29;98088.59;5202659;28;20228;-69
2021/07/20 00:28:27;;;;;;;17.77;15.98;;;18.30;99.90;;;19.22;77.11;98090.91;5202478;28;20225;-69
2021/07/20 00:31:01;;;;;;;17.08;15.40;;;18.20;99.90;;;19.18;77.19;98091.69;5205265;28;20712;-69
2021/07/20 00:33:34;;;;;;;18.58;15.80;;;18.10;99.90;;;19.15;77.23;98093.31;5187637;28;20194;-69
2021/07/20 00:36:07;;;;;;;17.13;15.43;;;18.10;99.90;;;19.15;77.88;98091.59;5197547;28;20194;-69
2021/07/20 00:38:40;;;;;;;17.48;15.55;;;18.10;99.90;;;19.12;77.95;98089.78;5198980;28;20301;-69
2021/07/20 00:41:14;;;;;;;18.27;16.35;;;18.10;99.90;;;19.09;77.98;98086.25;5204091;28;20190;-69
2021/07/20 00:43:48;;;;;;;17.52;15.73;;;18.10;99.90;;;19.00;79.12;98086.88;5204889;28;20229;-69
2021/07/20 00:46:21;;;;;;;16.83;15.23;;;18.00;99.90;;;18.88;78.26;98083.94;5204756;28;20312;-69
2021/07/20 00:48:54;;;;;;;17.02;15.43;;;17.90;99.90;;;18.89;78.58;98080.53;5204403;28;20594;-68
2021/07/20 00:51:27;;;;;;;17.52;15.57;;;17.90;99.90;;;18.86;78.26;98083.91;5205142;28;20206;-69
2021/07/20 00:54:00;;;;;;;17.52;15.73;;;17.90;99.90;;;18.85;78.43;98087.31;5203790;28;20204;-69
2021/07/20 00:56:34;;;;;;;19.42;16.50;;;17.80;99.90;;;18.71;78.44;98088.59;5201071;28;20285;-69
2021/07/20 00:59:09;;;;;;;18.50;16.58;;;17.70;99.90;;;18.72;78.87;98090.38;5199455;28;20222;-69
2021/07/20 01:01:42;;;;;;;17.60;15.85;;;17.70;99.90;;;18.68;79.01;98092.00;5204811;28;20669;-69
2021/07/20 01:04:17;;;;;;;17.25;15.55;;;17.70;99.90;;;18.63;79.37;98084.94;5202468;28;20201;-69
2021/07/20 01:06:52;;;;;;;16.77;15.07;;;17.60;99.90;;;18.60;79.30;98084.81;5200920;28;20663;-69
2021/07/20 01:09:28;;;;;;;19.00;17.10;;;17.50;99.90;;;18.57;79.75;98084.72;5189454;28;20196;-69
2021/07/20 01:12:02;;;;;;;18.52;16.60;;;17.50;99.90;;;18.50;81.38;98088.84;5204653;28;20206;-69
2021/07/20 01:14:36;;;;;;;18.08;16.23;;;17.50;99.90;;;18.51;80.14;98079.38;5204025;28;20308;-69
2021/07/20 01:17:11;;;;;;;18.52;16.23;;;17.50;99.90;;;18.48;80.78;98084.47;5197821;28;20224;-69
2021/07/20 01:19:51;;;;;;;17.45;15.75;;;17.40;99.90;;;18.43;80.41;98087.81;5184445;28;20220;-69
2021/07/20 01:22:30;;;;;;;18.63;16.27;;;17.40;99.90;;;18.47;79.96;98086.19;5187302;28;20309;-68
2021/07/20 01:25:10;;;;;;;17.67;15.88;;;17.40;99.90;;;18.41;81.18;98086.00;5188075;28;20222;-69
2021/07/20 01:27:49;;;;;;;17.67;15.95;;;17.40;99.90;;;18.37;80.70;98076.38;5199263;28;20218;-69
2021/07/20 01:30:22;;;;;;;17.85;15.88;;;17.30;99.90;;;18.39;80.17;98083.34;5196464;28;20198;-69
2021/07/20 01:32:57;;;;;;;17.77;15.98;;;17.30;99.90;;;18.33;80.00;98078.00;5208268;28;20206;-69
2021/07/20 01:35:31;;;;;;;17.30;15.10;;;17.20;99.90;;;18.23;81.07;98079.44;5200744;28;20654;-69
2021/07/20 01:38:08;;;;;;;17.77;15.80;;;17.20;99.90;;;18.19;80.32;98077.56;5191063;28;20218;-69
2021/07/20 01:40:43;;;;;;;17.73;15.88;;;17.10;99.90;;;18.14;80.70;98075.69;5193713;28;20665;-69
2021/07/20 01:43:22;;;;;;;16.88;15.27;;;17.10;99.90;;;18.06;80.21;98080.66;5194622;28;20190;-68
2021/07/20 01:45:56;;;;;;;17.00;15.20;;;17.00;99.90;;;18.07;81.11;98081.50;5207491;28;20224;-68
2021/07/20 01:48:35;;;;;;;16.90;15.10;;;17.00;99.90;;;18.01;80.92;98083.06;5205656;28;20209;-68
2021/07/20 01:51:09;;;;;;;16.67;14.98;;;17.00;99.90;;;17.94;82.19;98082.81;5207687;28;20206;-68
2021/07/20 01:53:43;;;;;;;17.38;15.75;;;17.00;99.90;;;17.88;81.61;98080.91;5199597;28;20194;-68
2021/07/20 01:56:20;;;;;;;17.95;15.52;;;16.90;99.90;;;17.88;81.47;98082.63;5196345;28;20190;-69
2021/07/20 01:58:53;;;;;;;17.77;16.08;;;16.80;99.90;;;17.82;80.97;98085.91;5207189;28;20222;-69
2021/07/20 02:01:30;;;;;;;17.00;15.23;;;16.80;99.90;;;17.79;81.43;98070.28;5206078;28;20686;-69
2021/07/20 02:04:23;;;;;;;17.13;15.25;;;16.70;99.90;;;17.75;81.13;98077.03;5207525;28;20289;-69
2021/07/20 02:09:49;;;;;;;17.73;15.93;;;16.60;99.90;;;17.59;80.78;98082.53;5207833;28;20676;-68
2021/07/20 02:12:32;;;;;;;16.90;15.35;;;16.50;99.90;;;17.60;81.06;98083.41;5206837;28;20205;-69
2021/07/20 02:15:08;;;;;;;16.15;14.43;;;16.50;99.90;;;17.56;81.63;98088.47;5189462;28;20724;-69
2021/07/20 02:17:42;;;;;;;17.67;15.88;;;16.50;99.90;;;17.48;82.41;98079.63;5186571;28;20597;-68
2021/07/20 02:20:20;;;;;;;16.98;15.27;;;16.50;99.90;;;17.48;82.52;98086.47;5186701;28;20202;-68
2021/07/20 02:22:56;;;;;;;16.42;14.73;;;16.50;99.90;;;17.45;81.71;98079.47;5187026;28;20206;-69
2021/07/20 02:25:31;;;;;;;16.92;15.32;;;16.40;99.90;;;17.43;82.42;98085.47;5205910;28;20711;-68
2021/07/20 02:28:26;;;;;;;16.70;15.00;;;16.40;99.90;;;17.38;82.10;98080.13;5206772;28;20585;-69
2021/07/20 02:31:02;;;;;;;17.48;15.68;;;16.40;99.90;;;17.38;81.99;98090.47;5206112;28;20194;-69
2021/07/20 02:33:36;;;;;;;16.75;15.05;;;16.30;99.90;;;17.32;82.12;98087.66;5187449;28;20546;-69
2021/07/20 02:36:10;;;;;;;18.95;15.93;;;16.20;99.90;;;17.28;82.73;98089.28;5186665;28;20288;-69
2021/07/20 02:38:45;;;;;;;15.60;14.02;;;16.30;99.90;;;17.24;82.45;98086.53;5190415;28;20364;-68
2021/07/20 02:41:19;;;;;;;18.45;15.13;;;16.20;99.90;;;17.20;82.75;98085.56;5206255;28;20288;-68
2021/07/20 02:43:55;;;;;;;16.98;15.18;;;16.20;99.90;;;17.26;82.22;98087.47;5206553;28;20205;-68
2021/07/20 02:46:29;;;;;;;17.15;15.35;;;16.20;99.90;;;17.19;81.62;98088.06;5206277;28;20215;-69
2021/07/20 02:49:04;;;;;;;15.50;13.48;;;16.10;99.90;;;17.18;81.72;98086.31;5206371;28;20233;-68
2021/07/20 02:51:37;;;;;;;16.52;14.75;;;16.00;99.90;;;17.10;81.98;98086.03;5206479;28;20231;-69
2021/07/20 02:54:10;;;;;;;16.15;14.48;;;16.10;99.90;;;17.07;82.76;98091.09;5199171;28;20201;-68
2021/07/20 02:56:44;;;;;;;16.08;14.43;;;16.10;99.90;;;17.05;82.06;98087.56;5185872;28;20202;-68
2021/07/20 02:59:24;;;;;;;16.83;15.02;;;16.00;99.90;;;17.01;81.86;98096.06;5194135;28;20642;-68
2021/07/20 03:02:00;;;;;;;16.92;15.23;;;16.00;99.90;;;16.90;81.95;98090.50;5204339;28;20563;-68
2021/07/20 03:04:34;;;;;;;16.13;14.52;;;15.90;99.90;;;16.87;82.01;98095.56;5206432;28;20255;-69
2021/07/20 03:07:15;;;;;;;16.05;14.45;;;15.90;99.90;;;16.82;82.49;98099.66;5205739;28;20222;-68
2021/07/20 03:09:51;;;;;;;16.30;14.18;;;15.90;99.90;;;16.80;83.12;98096.16;5192653;28;20258;-68
2021/07/20 03:12:26;;;;;;;17.38;15.35;;;15.90;99.90;;;16.75;82.70;98101.13;5185777;28;20210;-69
2021/07/20 03:15:01;;;;;;;17.35;14.68;;;15.90;99.90;;;16.76;81.48;98092.56;5200636;28;20190;-68
2021/07/20 03:17:35;;;;;;;16.75;14.63;;;15.80;99.90;;;16.75;82.08;98100.25;5185790;28;20314;-68
2021/07/20 03:20:12;;;;;;;16.13;14.40;;;15.80;99.90;;;16.70;82.23;98096.63;5196324;28;20198;-68
2021/07/20 03:22:46;;;;;;;15.50;13.82;;;15.80;99.90;;;16.65;82.21;98102.50;5205852;28;20212;-68
2021/07/20 03:25:20;;;;;;;18.38;15.30;;;15.70;99.90;;;16.66;81.57;98093.03;5206108;28;20204;-68
2021/07/20 03:27:57;;;;;;;17.25;14.95;;;15.70;99.90;;;16.61;82.48;98098.03;5205246;28;20228;-68
2021/07/20 03:30:34;;;;;;;16.42;14.82;;;15.60;99.90;;;16.57;82.46;98093.59;5205792;28;20202;-68
2021/07/20 03:33:08;;;;;;;15.18;13.57;;;15.60;99.90;;;16.59;81.97;98097.09;5201144;28;20200;-68
2021/07/20 03:35:42;;;;;;;15.65;14.10;;;15.60;99.90;;;16.51;82.26;98097.63;5186413;28;20574;-68
2021/07/20 03:38:16;;;;;;;16.17;14.60;;;15.50;99.90;;;16.54;82.29;98093.47;5187131;28;20218;-69
2021/07/20 03:40:53;;;;;;;16.13;14.55;;;15.50;99.90;;;16.43;82.11;98098.22;5202224;28;20201;-69
2021/07/20 03:43:27;;;;;;;16.58;14.88;;;15.50;99.90;;;16.43;83.47;98103.38;5204494;28;20284;-68
2021/07/20 03:46:02;;;;;;;15.60;14.00;;;15.50;99.90;;;16.41;82.60;98097.28;5205449;28;20201;-68
2021/07/20 03:48:37;;;;;;;15.68;14.13;;;15.50;99.90;;;16.37;82.84;98103.16;5204925;28;20313;-69
2021/07/20 03:51:11;;;;;;;16.02;14.32;;;15.50;99.90;;;16.33;83.16;98108.13;5198430;28;20650;-68
2021/07/20 03:53:45;;;;;;;16.83;14.38;;;15.50;99.90;;;16.38;83.17;98109.19;5185172;28;20201;-68
2021/07/20 03:56:20;;;;;;;15.43;13.82;;;15.50;99.90;;;16.39;82.88;98108.34;5204923;28;20198;-68
2021/07/20 03:58:57;;;;;;;15.05;13.52;;;15.50;99.90;;;16.38;82.83;98102.31;5204707;28;20217;-68
2021/07/20 04:01:35;;;;;;;15.80;14.20;;;15.50;99.90;;;16.40;82.36;98111.00;5198227;28;20190;-68
2021/07/20 04:04:13;;;;;;;18.80;15.35;;;15.40;99.90;;;16.37;82.96;98115.19;5196222;28;20317;-68
2021/07/20 04:06:48;;;;;;;16.80;15.20;;;15.40;99.90;;;16.08;82.78;98121.75;5184408;28;20230;-68
2021/07/20 04:09:21;;;;;;;15.88;14.27;;;15.10;99.90;;;16.13;84.19;98128.84;5184661;28;20202;-68
2021/07/20 04:11:56;;;;;;;15.45;13.95;;;15.20;99.90;;;16.23;83.14;98121.50;5195694;28;20297;-69
2021/07/20 04:14:30;;;;;;;15.80;14.15;;;15.30;99.90;;;16.32;82.71;98121.84;5204009;28;20190;-68
2021/07/20 04:17:06;;;;;;;15.38;13.77;;;15.30;99.90;;;16.30;82.28;98118.34;5204889;28;20198;-68
2021/07/20 04:19:41;;;;;;;15.27;13.88;;;15.30;99.90;;;16.33;82.48;98123.59;5205014;28;20292;-68
2021/07/20 04:22:16;;;;;;;16.70;15.00;;;15.30;99.90;;;16.36;83.00;98121.16;5205308;28;20206;-68
2021/07/20 04:24:50;;;;;;;16.20;14.35;;;15.40;99.90;;;16.40;82.10;98131.66;5204500;28;20684;-68
2021/07/20 04:27:24;;;;;;;15.93;14.23;;;15.30;99.90;;;16.42;82.44;98126.53;5202631;28;20218;-68
2021/07/20 04:29:57;;;;;;;16.35;14.50;;;15.40;99.90;;;16.48;81.78;98139.66;5205029;28;20199;-68
2021/07/20 04:32:31;;;;;;;15.60;13.98;;;15.30;99.90;;;16.47;81.67;98137.91;5202389;28;20717;-68
2021/07/20 04:35:06;;;;;;;16.40;14.70;;;15.40;99.90;;;16.48;81.50;98137.09;5192447;28;20240;-68
2021/07/20 04:37:41;;;;;;;15.88;14.27;;;15.40;99.90;;;16.49;81.85;98141.44;5201521;28;20205;-68
2021/07/20 04:40:15;;;;;;;15.57;13.98;;;15.40;99.90;;;16.53;81.46;98142.44;5191008;28;20641;-68
2021/07/20 04:42:50;;;;;;;18.73;14.68;;;15.50;99.90;;;16.58;81.26;98136.63;5204239;28;20288;-68
2021/07/20 04:45:27;;;;;;;17.55;15.68;;;15.50;99.90;;;16.61;81.29;98136.75;5191895;28;20943;-68
2021/07/20 04:48:02;;;;;;;16.33;14.65;;;15.50;99.90;;;16.61;81.44;98136.75;5204157;28;20222;-69
2021/07/20 04:50:36;;;;;;;15.57;14.13;;;15.60;99.90;;;16.61;81.55;98141.91;5204272;28;20206;-69
2021/07/20 04:53:10;;;;;;;16.25;14.65;;;15.60;99.90;;;16.70;80.75;98138.78;5205028;28;20484;-68
2021/07/20 04:55:46;;;;;;;16.60;14.93;;;15.70;99.90;;;16.79;80.63;98146.03;5205396;28;20296;-68
2021/07/20 04:58:19;;;;;;;15.55;13.95;;;15.70;99.90;;;16.81;80.96;98146.97;5207091;28;20214;-68
2021/07/20 05:00:55;;;;;;;15.95;14.35;;;15.80;99.90;;;16.90;80.18;98147.31;5206573;28;20222;-69
2021/07/20 05:03:31;;;;;;;15.45;13.88;;;15.80;99.90;;;16.96;80.11;98150.09;5201043;28;20551;-69
2021/07/20 05:06:06;;;;;;;16.95;15.23;;;15.90;99.90;;;16.98;79.21;98147.59;5202921;28;20209;-68
2021/07/20 05:08:40;;;;;;;17.38;15.50;;;15.80;99.90;;;17.06;80.64;98152.22;5195482;28;20222;-68
2021/07/20 05:11:14;;;;;;;16.42;14.80;;;16.00;99.90;;;17.30;79.51;98153.91;5207472;28;20193;-69
2021/07/20 05:13:49;;;;;;;18.58;15.20;;;16.20;99.90;;;17.56;78.56;98153.09;5209815;28;20292;-69
2021/07/20 05:16:23;;;;;;;15.85;14.10;;;16.40;99.90;;;17.78;76.60;98151.28;5200912;28;20197;-69
2021/07/20 05:18:58;;;;;;;16.83;15.13;;;16.50;99.90;;;17.96;75.42;98156.19;5208105;28;20214;-69
2021/07/20 05:21:31;;;;;;;16.38;14.75;;;16.50;99.90;;;18.18;75.24;98155.16;5200797;28;20228;-69
2021/07/20 05:24:06;;;;;;;16.50;13.95;;;16.80;99.90;;;18.29;74.52;98156.41;5209334;28;20340;-69
2021/07/20 05:26:41;;;;;;;15.52;13.95;;;16.90;99.90;;;18.62;73.11;98153.94;5204541;28;20285;-69
2021/07/20 05:29:16;;;;;;;16.27;14.57;;;17.30;99.90;;;19.03;71.69;98156.91;5209028;28;20255;-69
2021/07/20 05:31:50;;;;;;;16.45;14.70;;;17.60;99.90;;;19.45;69.90;98160.63;5209897;28;20692;-68
2021/07/20 05:34:25;;;;;;;15.95;14.02;;;17.90;99.90;;;19.92;69.08;98156.72;5209318;28;20610;-69
2021/07/20 05:36:58;;;;;;;14.82;13.32;;;18.30;99.90;;;20.30;67.21;98153.28;5207465;28;20294;-68
2021/07/20 05:39:32;;;;;;;15.27;13.73;;;18.70;99.90;;;20.66;65.34;98154.16;5206019;28;20208;-68
2021/07/20 05:42:07;;;;;;;14.80;13.30;;;18.90;99.90;;;21.03;64.40;98152.34;5204675;28;20198;-69
2021/07/20 05:44:41;;;;;;;14.00;12.50;;;19.10;99.90;;;21.29;63.17;98152.88;5207205;28;20197;-69
2021/07/20 05:47:15;;;;;;;14.45;12.95;;;19.50;99.90;;;21.57;62.13;98151.66;5208394;28;20222;-69
2021/07/20 05:50:07;;;;;;;14.68;13.18;;;19.60;99.90;;;21.78;61.65;98152.91;5209354;28;20206;-69
2021/07/20 05:52:44;;;;;;;15.40;13.80;;;19.70;99.90;;;21.89;60.90;98148.78;5204010;28;20198;-69
2021/07/20 05:55:21;;;;;;;15.18;13.57;;;19.90;99.90;;;22.24;60.04;98151.09;5203621;28;20288;-69
2021/07/20 05:57:54;;;;;;;14.82;13.32;;;20.10;99.90;;;22.37;59.42;98159.97;5206364;28;20221;-70
2021/07/20 06:00:30;;;;;;;14.60;13.07;;;20.20;99.90;;;22.53;58.41;98156.75;5205757;28;20202;-69
2021/07/20 06:03:04;;;;;;;14.90;13.50;;;20.30;99.90;;;22.61;58.37;98164.69;5194281;28;20198;-68
2021/07/20 06:05:39;;;;;;;14.55;13.05;;;20.40;99.90;;;22.95;57.25;98168.66;5186879;28;20301;-69
2021/07/20 06:08:16;;;;;;;14.02;12.65;;;20.50;99.90;;;23.04;57.13;98165.28;5186273;28;20587;-69
2021/07/20 06:10:53;;;;;;;15.15;13.65;;;20.70;99.90;;;23.12;56.66;98161.00;5188725;28;20212;-70
2021/07/20 06:13:32;;;;;;;14.80;13.30;;;20.70;99.90;;;23.41;56.43;98165.69;5187543;28;20509;-69
2021/07/20 06:16:08;;;;;;;15.25;13.65;;;20.90;99.90;;;23.75;54.91;98162.63;5186833;28;20204;-69
2021/07/20 06:18:41;;;;;;;14.65;12.85;;;21.00;99.90;;;23.85;54.78;98170.53;5194351;28;20257;-69
2021/07/20 06:21:19;;;;;;;14.13;12.63;;;21.20;99.90;;;24.21;53.59;98167.38;5199050;28;20198;-69
2021/07/20 06:23:54;;;;;;;17.13;12.60;;;21.30;99.90;;;24.48;52.52;98161.50;5206869;28;20208;-69
2021/07/20 06:26:29;;;;;;;13.45;12.25;;;21.60;99.90;;;24.74;51.71;98164.25;5191078;28;20200;-70
2021/07/20 06:29:04;;;;;;;13.05;11.77;;;21.80;99.90;;;24.94;50.65;98173.09;5206829;28;20235;-70
2021/07/20 06:31:40;;;;;;;13.18;11.77;;;22.00;99.90;;;25.21;48.86;98178.47;5204860;28;20194;-69
2021/07/20 06:34:15;;;;;;;13.15;11.85;;;22.00;99.90;;;25.30;49.14;98173.28;5205947;28;20620;-69
2021/07/20 06:36:50;;;;;;;13.18;11.88;;;22.00;99.90;;;25.58;48.03;98180.34;5207027;28;20197;-69
2021/07/20 06:39:23;;;;;;;13.32;11.95;;;22.20;99.90;;;25.78;47.65;98176.88;5199132;28;20193;-69
2021/07/20 06:41:57;;;;;;;12.82;11.63;;;22.20;99.90;;;25.98;48.00;98169.06;5204926;28;20208;-69
2021/07/20 06:44:36;;;;;;;11.98;10.98;;;22.50;99.90;;;26.20;47.67;98172.56;5203615;28;20197;-70
2021/07/20 06:47:13;;;;;;;13.05;11.85;;;22.70;99.90;;;26.19;46.13;98182.19;5202528;28;20213;-70
2021/07/20 06:49:49;;;;;;;12.32;11.23;;;22.90;99.90;;;26.40;45.92;98181.31;5193725;28;20229;-70
2021/07/20 06:52:24;;;;;;;12.00;10.77;;;23.00;99.90;;;26.57;45.86;98177.81;5190685;28;20194;-70
2021/07/20 06:54:57;;;;;;;12.02;10.90;;;23.10;99.90;;;26.84;45.50;98182.13;5207356;28;20731;-70
2021/07/20 06:57:32;;;;;;;12.85;11.65;;;23.30;99.90;;;27.13;44.39;98176.81;5196231;28;20300;-69
2021/07/20 07:00:08;;;;;;;12.43;11.18;;;23.50;99.60;;;27.15;43.58;98182.91;5193407;28;20199;-69
2021/07/20 07:02:43;;;;;;;12.05;10.85;;;23.50;99.20;;;27.19;44.19;98182.06;5201457;28;20197;-69
2021/07/20 07:05:18;;;;;;;12.40;11.20;;;23.60;99.30;;;27.04;43.55;98182.97;5207024;28;20209;-69
2021/07/20 07:07:53;;;;;;;12.23;11.02;;;23.70;98.40;;;26.99;43.65;98183.84;5210149;28;20220;-68
2021/07/20 07:10:27;;;;;;;11.40;10.15;;;23.80;98.40;;;27.28;43.28;98179.38;5195326;28;20293;-69
2021/07/20 07:13:05;;;;;;;11.13;10.02;;;23.90;98.30;;;27.57;42.66;98179.22;5193751;28;20225;-70
2021/07/20 07:15:38;;;;;;;12.40;10.98;;;24.20;97.80;;;27.46;42.76;98174.94;5203689;28;20300;-66
2021/07/20 07:18:13;;;;;;;12.07;10.88;;;24.20;97.70;;;27.06;43.69;98177.69;5197571;28;20670;-69
2021/07/20 07:20:50;;;;;;;11.48;10.48;;;23.90;98.20;;;27.30;43.40;98169.75;5202913;28;20293;-68
2021/07/20 07:23:27;;;;;;;12.18;11.13;;;24.10;98.00;;;27.60;42.82;98170.47;5190445;28;20280;-68
2021/07/20 07:26:02;;;;;;;12.07;10.85;;;24.30;97.80;;;27.70;43.08;98172.16;5184449;28;20206;-69
2021/07/20 07:28:36;;;;;;;12.73;11.43;;;24.60;97.70;;;27.77;43.04;98173.84;5199404;28;21035;-69
2021/07/20 07:31:11;;;;;;;12.05;10.27;;;24.80;97.00;;;27.77;42.60;98165.97;5200601;28;20198;-68
2021/07/20 07:33:45;;;;;;;11.60;10.40;;;24.50;97.20;;;27.91;42.51;98165.06;5191356;28;20198;-69
2021/07/20 07:36:20;;;;;;;12.18;10.95;;;24.40;97.30;;;27.84;42.19;98167.72;5191596;28;20208;-69
2021/07/20 07:38:58;;;;;;;12.68;11.38;;;24.70;97.00;;;27.83;43.38;98165.97;5200478;28;20213;-69
2021/07/20 07:41:34;;;;;;;13.77;12.32;;;24.70;97.60;;;28.24;42.64;98164.78;5198128;28;20215;-69
2021/07/20 07:44:12;;;;;;;13.27;12.07;;;25.00;97.50;;;28.41;42.94;98166.38;5198867;28;20213;-68
2021/07/20 07:46:46;;;;;;;13.73;12.32;;;25.10;97.60;;;28.73;41.72;98168.72;5202632;28;20197;-69
2021/07/20 07:49:20;;;;;;;13.48;12.07;;;25.20;97.00;;;28.90;40.87;98169.41;5204704;28;20270;-68
2021/07/20 07:51:55;;;;;;;12.85;11.55;;;25.10;96.50;;;28.78;40.77;98166.03;5205021;28;20677;-69
2021/07/20 07:54:29;;;;;;;12.52;11.23;;;25.10;96.80;;;29.21;40.53;98165.56;5204745;28;20211;-68
2021/07/20 07:57:03;;;;;;;13.55;11.93;;;25.40;96.00;;;29.40;40.23;98167.06;5185393;28;20193;-69
2021/07/20 07:59:39;;;;;;;12.85;11.55;;;25.50;96.30;;;29.48;40.25;98173.13;5197594;28;20198;-69
2021/07/20 08:02:21;;;;;;;16.40;11.65;;;25.60;96.50;;;29.49;39.46;98177.47;5202881;28;20229;-68
2021/07/20 08:04:54;;;;;;;12.05;10.88;;;25.80;96.00;;;29.68;39.63;98166.72;5204065;28;20572;-69
2021/07/20 08:07:29;;;;;;;11.90;10.63;;;26.00;95.60;;;29.96;39.01;98168.06;5204609;28;20239;-69
2021/07/20 08:10:06;;;;;;;11.85;10.63;;;26.30;95.20;;;30.12;37.60;98168.66;5199197;28;20216;-68
2021/07/20 08:12:42;;;;;;;12.90;10.77;;;26.20;94.60;;;30.45;37.98;98172.53;5185436;28;20240;-69
2021/07/20 08:15:17;;;;;;;11.13;9.95;;;26.40;94.80;;;30.56;37.31;98174.97;5203994;28;20189;-70
2021/07/20 08:17:51;;;;;;;10.70;9.65;;;26.60;94.00;;;30.18;36.87;98167.69;5187033;28;20221;-69
2021/07/20 08:20:25;;;;;;;11.48;10.38;;;26.60;93.40;;;29.79;38.18;98164.78;5200463;28;20193;-70
2021/07/20 08:22:58;;;;;;;13.73;10.35;;;26.30;93.70;;;29.27;38.99;98162.84;5204296;28;20212;-69
2021/07/20 08:25:40;;;;;;;12.07;10.98;;;26.30;94.00;;;29.28;39.39;98164.63;5188973;28;20202;-69
2021/07/20 08:28:21;;;;;;;12.82;10.35;;;26.20;94.10;;;29.34;38.97;98161.88;5201950;28;20764;-69
2021/07/20 08:31:02;;;;;;;11.57;10.38;;;26.30;93.60;;;28.88;41.04;98165.94;5205619;28;20198;-69
2021/07/20 08:33:58;;;;;;;11.80;10.23;;;26.40;94.80;;;28.93;41.52;98163.22;5203250;28;20222;-70
2021/07/20 08:36:34;;;;;;;11.75;9.60;;;26.60;94.20;;;29.01;40.60;98174.53;5194143;28;20233;-68
2021/07/20 08:39:09;;;;;;;11.40;10.30;;;26.70;93.30;;;29.11;39.90;98175.34;5193275;28;20228;-69
2021/07/20 08:42:09;;;;;;;11.50;10.30;;;26.90;93.30;;;28.87;40.33;98176.44;5194106;28;20677;-69
2021/07/20 08:45:03;;;;;;;11.20;9.80;;;26.60;93.30;;;28.54;41.55;98173.31;5207047;28;20194;-69
2021/07/20 08:48:02;;;;;;;11.77;10.57;;;26.60;94.40;;;28.56;41.54;98168.91;5202268;28;20213;-68
2021/07/20 08:50:41;;;;;;;11.13;9.32;;;26.60;93.80;;;28.68;41.56;98165.28;5207940;28;20223;-69
2021/07/20 08:53:26;;;;;;;12.60;10.50;;;26.80;93.90;;;28.64;42.31;98169.66;5207613;28;20207;-69
2021/07/20 08:56:03;;;;;;;11.75;10.55;;;26.90;94.10;;;28.72;41.22;98167.84;5208650;28;20197;-69
2021/07/20 08:58:43;;;;;;;10.90;9.85;;;26.90;92.90;;;28.86;40.17;98166.81;5201553;28;20689;-69
2021/07/20 09:01:25;;;;;;;15.13;10.63;;;26.80;93.40;;;28.87;41.10;98166.81;5204459;28;20277;-69
2021/07/20 09:04:04;;;;;;;12.15;10.85;;;26.90;93.60;;;28.86;39.96;98164.19;5207075;28;20224;-70
2021/07/20 09:06:48;;;;;;;11.88;10.70;;;27.00;92.30;;;28.85;40.61;98162.47;5199406;28;20206;-69
2021/07/20 09:09:27;;;;;;;12.20;11.02;;;26.80;93.10;;;28.68;41.02;98170.53;5206830;28;20214;-69
2021/07/20 09:12:05;;;;;;;10.88;9.82;;;26.80;93.20;;;28.69;41.72;98162.59;5205290;28;20208;-68
2021/07/20 09:14:46;;;;;;;12.27;11.07;;;26.70;93.10;;;28.69;41.58;98167.00;5198483;28;20291;-69
2021/07/20 09:17:29;;;;;;;11.40;10.23;;;27.00;93.30;;;28.83;42.08;98158.97;5198142;28;20590;-64
2021/07/20 09:20:08;;;;;;;11.27;10.18;;;27.10;93.40;;;28.92;41.57;98164.13;5195304;28;20559;-67
2021/07/20 09:22:50;;;;;;;12.57;10.85;;;27.20;93.20;;;28.73;40.09;98166.97;5207553;28;20207;-68
2021/07/20 09:25:29;;;;;;;12.23;10.75;;;27.00;92.30;;;28.64;41.56;98174.06;5208084;28;20197;-69
2021/07/20 09:28:07;;;;;;;12.20;11.05;;;26.90;93.50;;;28.52;41.41;98160.16;5201996;28;20289;-69
2021/07/20 09:30:47;;;;;;;12.57;11.27;;;27.00;92.50;;;28.60;41.07;98156.59;5207043;28;20225;-69
2021/07/20 09:33:33;;;;;;;13.23;11.80;;;27.00;92.50;;;28.71;41.61;98158.22;5203493;28;20284;-71
2021/07/20 09:36:16;;;;;;;12.60;11.07;;;27.10;92.50;;;28.61;41.38;98153.91;5202543;28;20201;-69
2021/07/20 09:39:35;;;;;;;12.50;11.30;;;27.20;92.50;;;28.64;40.38;98159.16;5206932;28;20320;-70
2021/07/20 09:42:16;;;;;;;13.10;11.90;;;27.10;92.20;;;28.54;41.87;98161.91;5206778;28;20654;-69
2021/07/20 09:45:01;;;;;;;12.85;11.55;;;27.10;92.60;;;28.61;40.55;98153.91;5203396;28;20209;-70
2021/07/20 09:47:53;;;;;;;12.90;11.57;;;27.20;91.90;;;28.74;40.16;98155.53;5206375;28;20271;-69
2021/07/20 09:50:29;;;;;;;12.73;11.52;;;27.20;92.00;;;28.60;40.11;98152.19;5205504;28;20220;-69
2021/07/20 09:54:01;;;;;;;12.98;11.77;;;27.00;91.50;;;28.71;41.18;98149.44;5201408;28;20288;-70
2021/07/20 09:56:48;;;;;;;13.45;12.13;;;27.10;92.30;;;28.65;41.06;98150.38;5200147;28;20213;-69
2021/07/20 09:59:49;;;;;;;12.95;11.85;;;27.40;92.10;;;28.63;41.41;98152.16;5200464;28;20206;-69
2021/07/20 10:02:34;;;;;;;13.88;12.25;;;27.50;91.90;;;28.60;41.96;98156.59;5199884;28;20201;-70
2021/07/20 10:05:15;;;;;;;12.88;11.48;;;27.40;92.10;;;28.75;39.89;98152.00;5202616;28;20201;-67
2021/07/20 10:07:54;;;;;;;13.02;11.73;;;27.10;90.80;;;28.81;39.02;98150.22;5206785;28;20225;-69
2021/07/20 10:10:34;;;;;;;13.20;11.77;;;27.20;91.10;;;28.67;39.71;98155.63;5204963;28;20221;-69
2021/07/20 10:13:21;;;;;;;12.05;10.93;;;27.30;90.70;;;28.72;39.76;98138.91;5201790;28;20204;-69
2021/07/20 10:16:08;;;;;;;13.82;12.45;;;27.60;91.10;;;28.53;40.93;98145.25;5205145;28;20233;-70
2021/07/20 10:18:52;;;;;;;13.68;12.23;;;27.40;91.00;;;28.41;41.24;98145.34;5200788;28;20798;-69
2021/07/20 10:21:29;;;;;;;13.77;12.40;;;27.30;91.90;;;28.37;40.93;98149.75;5203038;28;20200;-71
2021/07/20 10:24:10;;;;;;;13.10;11.90;;;27.30;91.40;;;28.45;40.57;98141.84;5187129;28;20301;-70
2021/07/20 10:26:49;;;;;;;14.15;12.75;;;27.00;91.10;;;28.34;38.89;98149.78;5192482;28;20197;-69
2021/07/20 10:29:43;;;;;;;12.73;11.52;;;27.00;90.00;;;28.26;40.97;98147.22;5200025;28;20247;-69
2021/07/20 10:32:21;;;;;;;13.90;12.50;;;27.00;91.20;;;28.21;40.31;98143.75;5197224;28;20204;-71
2021/07/20 10:34:58;;;;;;;13.50;12.20;;;26.90;90.90;;;28.30;40.13;98138.44;5187281;28;20285;-69
2021/07/20 10:37:37;;;;;;;13.45;12.25;;;26.90;90.60;;;28.26;40.63;98134.06;5192887;28;20290;-68
2021/07/20 10:40:15;;;;;;;13.38;12.13;;;26.90;91.20;;;28.51;40.65;98141.78;5199920;28;20289;-69
2021/07/20 10:42:55;;;;;;;13.30;12.07;;;26.90;91.20;;;28.31;41.44;98134.03;5204348;28;20320;-69
2021/07/20 10:45:34;;;;;;;14.10;12.70;;;27.00;91.80;;;28.17;41.19;98142.03;5199724;28;20265;-69
2021/07/20 10:48:12;;;;;;;14.00;12.60;;;26.90;91.60;;;28.22;39.97;98134.13;5201280;28;20214;-70
2021/07/20 10:50:54;;;;;;;15.43;13.88;;;26.90;91.00;;;28.11;41.95;98136.84;5199767;28;20213;-69